sensor_id;sensor_type;location;lat;lon;timestamp;pressure;altitude;pressure_sealevel;temperature;humidity
65756;BME280;52489;47.502;18.940;2023-04-01T00:00:31;96806.16;;;7.59;100.00
65756;BME280;52489;47.502;18.940;2023-04-01T00:01:35;96805.41;;;7.67;100.00
65756;BME280;52489;47.502;18.940;2023-04-01T00:02:38;96803.25;;;7.69;100.00
65756;BME280;52489;47.502;18.940;2023-04-01T00:03:41;96790.66;;;7.71;100.00
65756;BME280;52489;47.502;18.940;2023-04-01T00:04:44;96785.31;;;7.77;100.00
65756;BME280;52489;47.502;18.940;2023-04-01T00:05:47;96794.66;;;7.86;100.00
65756;BME280;52489;47.502;18.940;2023-04-01T00:06:50;96789.16;;;7.88;100.00
65756;BME280;52489;47.502;18.940;2023-04-01T00:07:54;96803.84;;;7.84;100.00
65756;BME280;52489;47.502;18.940;2023-04-01T00:08:57;96800.19;;;7.85;100.00
65756;BME280;52489;47.502;18.940;2023-04-01T00:09:59;96801.25;;;7.84;100.00
65756;BME280;52489;47.502;18.940;2023-04-01T00:11:03;96805.88;;;7.69;100.00
65756;BME280;52489;47.502;18.940;2023-04-01T00:12:06;96801.56;;;7.65;100.00
65756;BME280;52489;47.502;18.940;2023-04-01T00:13:08;96810.00;;;7.79;100.00
65756;BME280;52489;47.502;18.940;2023-04-01T00:14:11;96804.03;;;7.96;100.00
65756;BME280;52489;47.502;18.940;2023-04-01T00:15:14;96800.47;;;7.83;100.00
65756;BME280;52489;47.502;18.940;2023-04-01T00:16:17;96800.94;;;7.85;100.00
65756;BME280;52489;47.502;18.940;2023-04-01T00:17:23;96794.66;;;8.12;100.00
65756;BME280;52489;47.502;18.940;2023-04-01T00:18:26;96789.28;;;8.00;100.00
65756;BME280;52489;47.502;18.940;2023-04-01T00:19:29;96793.13;;;8.11;100.00
65756;BME280;52489;47.502;18.940;2023-04-01T00:20:46;96791.00;;;8.05;100.00
65756;BME280;52489;47.502;18.940;2023-04-01T00:21:49;96796.81;;;8.02;100.00
65756;BME280;52489;47.502;18.940;2023-04-01T00:22:52;96796.78;;;8.10;100.00
65756;BME280;52489;47.502;18.940;2023-04-01T00:23:55;96799.25;;;8.07;100.00
65756;BME280;52489;47.502;18.940;2023-04-01T00:24:58;96789.91;;;7.97;100.00
65756;BME280;52489;47.502;18.940;2023-04-01T00:26:02;96793.13;;;8.11;100.00
65756;BME280;52489;47.502;18.940;2023-04-01T00:27:06;96784.84;;;8.09;100.00
65756;BME280;52489;47.502;18.940;2023-04-01T00:28:10;96796.03;;;7.84;100.00
65756;BME280;52489;47.502;18.940;2023-04-01T00:29:13;96796.66;;;7.81;100.00
65756;BME280;52489;47.502;18.940;2023-04-01T00:30:17;96796.81;;;7.84;100.00
65756;BME280;52489;47.502;18.940;2023-04-01T00:31:20;96797.72;;;7.97;100.00
65756;BME280;52489;47.502;18.940;2023-04-01T00:32:23;96792.84;;;7.87;100.00
65756;BME280;52489;47.502;18.940;2023-04-01T00:33:26;96796.66;;;7.89;100.00
65756;BME280;52489;47.502;18.940;2023-04-01T00:34:30;96793.13;;;7.77;100.00
65756;BME280;52489;47.502;18.940;2023-04-01T00:35:33;96796.34;;;7.82;100.00
65756;BME280;52489;47.502;18.940;2023-04-01T00:36:36;96789.16;;;7.88;100.00
65756;BME280;52489;47.502;18.940;2023-04-01T00:37:39;96783.78;;;7.75;100.00
65756;BME280;52489;47.502;18.940;2023-04-01T00:38:43;96789.75;;;7.85;100.00
65756;BME280;52489;47.502;18.940;2023-04-01T00:39:46;96783.47;;;7.94;100.00
65756;BME280;52489;47.502;18.940;2023-04-01T00:40:49;96783.78;;;7.93;100.00
65756;BME280;52489;47.502;18.940;2023-04-01T00:41:53;96784.41;;;7.90;100.00
65756;BME280;52489;47.502;18.940;2023-04-01T00:42:56;96778.41;;;7.98;100.00
65756;BME280;52489;47.502;18.940;2023-04-01T00:44:21;96776.53;;;7.98;100.00
65756;BME280;52489;47.502;18.940;2023-04-01T00:45:34;96778.72;;;7.88;100.00
65756;BME280;52489;47.502;18.940;2023-04-01T00:46:37;96781.47;;;7.74;100.00
65756;BME280;52489;47.502;18.940;2023-04-01T00:47:40;96774.41;;;7.48;100.00
65756;BME280;52489;47.502;18.940;2023-04-01T00:48:48;96781.00;;;7.55;100.00
65756;BME280;52489;47.502;18.940;2023-04-01T00:49:53;96789.12;;;7.53;100.00
65756;BME280;52489;47.502;18.940;2023-04-01T00:51:04;96786.03;;;7.51;100.00
65756;BME280;52489;47.502;18.940;2023-04-01T00:52:08;96781.78;;;7.55;100.00
65756;BME280;52489;47.502;18.940;2023-04-01T00:53:14;96778.69;;;7.53;100.00
65756;BME280;52489;47.502;18.940;2023-04-01T00:54:19;96780.22;;;7.54;100.00
65756;BME280;52489;47.502;18.940;2023-04-01T00:55:24;96780.84;;;7.60;100.00
65756;BME280;52489;47.502;18.940;2023-04-01T00:56:35;96777.00;;;7.66;100.00
65756;BME280;52489;47.502;18.940;2023-04-01T00:57:41;96778.84;;;7.65;100.00
65756;BME280;52489;47.502;18.940;2023-04-01T00:58:48;96778.72;;;7.70;100.00
65756;BME280;52489;47.502;18.940;2023-04-01T00:59:54;96786.22;;;7.81;100.00
65756;BME280;52489;47.502;18.940;2023-04-01T01:00:59;96790.38;;;7.82;100.00
65756;BME280;52489;47.502;18.940;2023-04-01T01:02:04;96787.91;;;7.77;100.00
65756;BME280;52489;47.502;18.940;2023-04-01T01:03:08;96783.47;;;7.86;100.00
65756;BME280;52489;47.502;18.940;2023-04-01T01:04:26;96780.56;;;7.79;100.00
65756;BME280;52489;47.502;18.940;2023-04-01T01:06:19;96779.63;;;7.74;100.00
65756;BME280;52489;47.502;18.940;2023-04-01T01:07:38;96783.94;;;7.79;100.00
65756;BME280;52489;47.502;18.940;2023-04-01T01:10:20;96788.06;;;7.71;100.00
65756;BME280;52489;47.502;18.940;2023-04-01T01:11:37;96782.38;;;7.95;100.00
65756;BME280;52489;47.502;18.940;2023-04-01T01:13:11;96774.25;;;8.06;100.00
65756;BME280;52489;47.502;18.940;2023-04-01T01:15:44;96774.56;;;7.95;100.00
65756;BME280;52489;47.502;18.940;2023-04-01T01:16:54;96779.16;;;7.98;100.00
65756;BME280;52489;47.502;18.940;2023-04-01T01:24:26;96772.88;;;7.82;100.00
65756;BME280;52489;47.502;18.940;2023-04-01T01:29:56;96775.19;;;7.58;100.00
65756;BME280;52489;47.502;18.940;2023-04-01T01:31:24;96776.72;;;7.67;100.00
65756;BME280;52489;47.502;18.940;2023-04-01T01:33:53;96775.97;;;7.75;100.00
65756;BME280;52489;47.502;18.940;2023-04-01T01:36:15;96779.63;;;7.74;100.00
65756;BME280;52489;47.502;18.940;2023-04-01T01:37:20;96777.47;;;7.68;100.00
65756;BME280;52489;47.502;18.940;2023-04-01T01:38:29;96772.59;;;7.75;100.00
65756;BME280;52489;47.502;18.940;2023-04-01T01:39:34;96782.09;;;7.71;100.00
65756;BME280;52489;47.502;18.940;2023-04-01T01:40:40;96785.16;;;7.73;100.00
65756;BME280;52489;47.502;18.940;2023-04-01T01:41:45;96768.16;;;7.75;100.00
65756;BME280;52489;47.502;18.940;2023-04-01T01:42:54;96774.88;;;7.85;100.00
65756;BME280;52489;47.502;18.940;2023-04-01T01:43:59;96778.72;;;7.96;100.00
65756;BME280;52489;47.502;18.940;2023-04-01T01:45:06;96772.28;;;7.85;100.00
65756;BME280;52489;47.502;18.940;2023-04-01T01:46:18;96770.91;;;7.88;100.00
65756;BME280;52489;47.502;18.940;2023-04-01T01:47:25;96775.16;;;7.92;100.00
65756;BME280;52489;47.502;18.940;2023-04-01T01:48:31;96771.97;;;7.87;100.00
65756;BME280;52489;47.502;18.940;2023-04-01T01:49:35;96768.59;;;7.86;100.00
65756;BME280;52489;47.502;18.940;2023-04-01T01:50:40;96773.34;;;7.93;100.00
65756;BME280;52489;47.502;18.940;2023-04-01T01:51:43;96768.13;;;7.93;100.00
65756;BME280;52489;47.502;18.940;2023-04-01T01:52:46;96768.59;;;7.86;100.00
65756;BME280;52489;47.502;18.940;2023-04-01T01:53:49;96773.50;;;7.88;100.00
65756;BME280;52489;47.502;18.940;2023-04-01T01:54:54;96770.13;;;7.87;100.00
65756;BME280;52489;47.502;18.940;2023-04-01T01:55:58;96775.34;;;7.79;100.00
65756;BME280;52489;47.502;18.940;2023-04-01T01:57:10;96763.22;;;7.74;100.00
65756;BME280;52489;47.502;18.940;2023-04-01T01:58:19;96774.72;;;7.82;100.00
65756;BME280;52489;47.502;18.940;2023-04-01T01:59:24;96775.19;;;7.66;100.00
65756;BME280;52489;47.502;18.940;2023-04-01T02:00:29;96775.81;;;7.72;100.00
65756;BME280;52489;47.502;18.940;2023-04-01T02:01:37;96773.03;;;7.68;100.00
65756;BME280;52489;47.502;18.940;2023-04-01T02:02:45;96776.87;;;7.71;100.00
65756;BME280;52489;47.502;18.940;2023-04-01T02:03:50;96771.38;;;7.64;100.00
65756;BME280;52489;47.502;18.940;2023-04-01T02:04:53;96763.22;;;7.65;100.00
65756;BME280;52489;47.502;18.940;2023-04-01T02:05:59;96766.28;;;7.59;100.00
65756;BME280;52489;47.502;18.940;2023-04-01T02:07:07;96775.50;;;7.65;100.00
65756;BME280;52489;47.502;18.940;2023-04-01T02:08:19;96768.44;;;7.83;100.00
65756;BME280;52489;47.502;18.940;2023-04-01T02:09:24;96767.38;;;7.75;100.00
65756;BME280;52489;47.502;18.940;2023-04-01T02:10:28;96767.38;;;7.75;100.00
65756;BME280;52489;47.502;18.940;2023-04-01T02:12:38;96763.53;;;7.72;100.00
65756;BME280;52489;47.502;18.940;2023-04-01T02:13:50;96766.91;;;7.73;100.00
65756;BME280;52489;47.502;18.940;2023-04-01T02:16:08;96770.59;;;7.63;100.00
65756;BME280;52489;47.502;18.940;2023-04-01T02:17:19;96762.78;;;7.72;100.00
65756;BME280;52489;47.502;18.940;2023-04-01T02:18:23;96759.25;;;7.77;100.00
65756;BME280;52489;47.502;18.940;2023-04-01T02:19:54;96758.78;;;7.74;100.00
65756;BME280;52489;47.502;18.940;2023-04-01T02:20:59;96767.81;;;7.68;100.00
65756;BME280;52489;47.502;18.940;2023-04-01T02:22:04;96746.06;;;7.64;100.00
65756;BME280;52489;47.502;18.940;2023-04-01T02:23:10;96751.41;;;7.68;100.00
65756;BME280;52489;47.502;18.940;2023-04-01T02:24:14;96756.34;;;7.69;100.00
65756;BME280;52489;47.502;18.940;2023-04-01T02:25:22;96765.69;;;7.70;100.00
65756;BME280;52489;47.502;18.940;2023-04-01T02:26:27;96750.38;;;7.60;100.00
65756;BME280;52489;47.502;18.940;2023-04-01T02:27:31;96745.28;;;7.55;100.00
65756;BME280;52489;47.502;18.940;2023-04-01T02:28:37;96739.00;;;7.56;100.00
65756;BME280;52489;47.502;18.940;2023-04-01T02:29:41;96739.63;;;7.53;100.00
65756;BME280;52489;47.502;18.940;2023-04-01T02:30:44;96741.91;;;7.46;100.00
65756;BME280;52489;47.502;18.940;2023-04-01T02:31:49;96750.03;;;7.53;100.00
65756;BME280;52489;47.502;18.940;2023-04-01T02:32:53;96749.56;;;7.42;100.00
65756;BME280;52489;47.502;18.940;2023-04-01T02:33:58;96745.56;;;7.36;100.00
65756;BME280;52489;47.502;18.940;2023-04-01T02:35:02;96740.22;;;7.50;100.00
65756;BME280;52489;47.502;18.940;2023-04-01T02:36:15;96740.06;;;7.46;100.00
65756;BME280;52489;47.502;18.940;2023-04-01T02:37:19;96745.59;;;7.53;100.00
65756;BME280;52489;47.502;18.940;2023-04-01T02:38:22;96740.53;;;7.57;100.00
65756;BME280;52489;47.502;18.940;2023-04-01T02:39:25;96736.53;;;7.60;100.00
65756;BME280;52489;47.502;18.940;2023-04-01T02:40:29;96732.25;;;7.55;100.00
65756;BME280;52489;47.502;18.940;2023-04-01T02:41:39;96735.00;;;7.50;100.00
65756;BME280;52489;47.502;18.940;2023-04-01T02:42:42;96731.31;;;7.51;100.00
65756;BME280;52489;47.502;18.940;2023-04-01T02:43:45;96733.63;;;7.70;100.00
65756;BME280;52489;47.502;18.940;2023-04-01T02:44:48;96738.37;;;7.59;100.00
65756;BME280;52489;47.502;18.940;2023-04-01T02:45:51;96728.91;;;7.55;100.00
65756;BME280;52489;47.502;18.940;2023-04-01T02:46:54;96730.72;;;7.54;100.00
65756;BME280;52489;47.502;18.940;2023-04-01T02:47:57;96738.09;;;7.43;100.00
65756;BME280;52489;47.502;18.940;2023-04-01T02:49:01;96735.34;;;7.40;100.00
65756;BME280;52489;47.502;18.940;2023-04-01T02:50:05;96743.56;;;7.33;100.00
65756;BME280;52489;47.502;18.940;2023-04-01T02:51:08;96743.28;;;7.26;100.00
65756;BME280;52489;47.502;18.940;2023-04-01T02:52:11;96747.25;;;7.23;100.00
65756;BME280;52489;47.502;18.940;2023-04-01T02:53:15;96747.09;;;7.20;100.00
65756;BME280;52489;47.502;18.940;2023-04-01T02:54:19;96749.09;;;7.23;100.00
65756;BME280;52489;47.502;18.940;2023-04-01T02:55:22;96751.84;;;7.26;100.00
65756;BME280;52489;47.502;18.940;2023-04-01T02:56:26;96751.22;;;7.21;100.00
65756;BME280;52489;47.502;18.940;2023-04-01T02:57:29;96744.50;;;7.28;100.00
65756;BME280;52489;47.502;18.940;2023-04-01T02:58:32;96745.41;;;7.33;100.00
65756;BME280;52489;47.502;18.940;2023-04-01T02:59:35;96746.16;;;7.24;100.00
65756;BME280;52489;47.502;18.940;2023-04-01T03:00:38;96754.59;;;7.21;100.00
65756;BME280;52489;47.502;18.940;2023-04-01T03:01:41;96754.00;;;7.42;100.00
65756;BME280;52489;47.502;18.940;2023-04-01T03:02:44;96743.75;;;7.45;100.00
65756;BME280;52489;47.502;18.940;2023-04-01T03:03:47;96746.19;;;7.33;100.00
65756;BME280;52489;47.502;18.940;2023-04-01T03:04:50;96749.25;;;7.35;100.00
65756;BME280;52489;47.502;18.940;2023-04-01T03:05:53;96752.78;;;7.39;100.00
65756;BME280;52489;47.502;18.940;2023-04-01T03:06:59;96750.50;;;7.46;100.00
65756;BME280;52489;47.502;18.940;2023-04-01T03:08:02;96745.75;;;7.48;100.00
65756;BME280;52489;47.502;18.940;2023-04-01T03:09:05;96749.56;;;7.51;100.00
65756;BME280;52489;47.502;18.940;2023-04-01T03:10:09;96754.50;;;7.79;100.00
65756;BME280;52489;47.502;18.940;2023-04-01T03:11:13;96751.56;;;7.71;100.00
65756;BME280;52489;47.502;18.940;2023-04-01T03:12:16;96748.97;;;7.63;100.00
65756;BME280;52489;47.502;18.940;2023-04-01T03:13:18;96741.47;;;7.61;100.00
65756;BME280;52489;47.502;18.940;2023-04-01T03:14:21;96743.91;;;7.49;100.00
65756;BME280;52489;47.502;18.940;2023-04-01T03:15:24;96743.16;;;7.48;100.00
65756;BME280;52489;47.502;18.940;2023-04-01T03:16:27;96736.84;;;7.41;100.00
65756;BME280;52489;47.502;18.940;2023-04-01T03:17:30;96742.38;;;7.31;100.00
65756;BME280;52489;47.502;18.940;2023-04-01T03:18:34;96748.47;;;7.26;100.00
65756;BME280;52489;47.502;18.940;2023-04-01T03:19:37;96739.59;;;7.27;100.00
65756;BME280;52489;47.502;18.940;2023-04-01T03:20:40;96752.16;;;7.25;100.00
65756;BME280;52489;47.502;18.940;2023-04-01T03:21:42;96746.78;;;7.30;100.00
65756;BME280;52489;47.502;18.940;2023-04-01T03:22:45;96747.09;;;7.28;100.00
65756;BME280;52489;47.502;18.940;2023-04-01T03:23:49;96744.19;;;7.30;100.00
65756;BME280;52489;47.502;18.940;2023-04-01T03:24:52;96762.59;;;7.25;100.00
65756;BME280;52489;47.502;18.940;2023-04-01T03:25:55;96764.72;;;7.23;100.00
65756;BME280;52489;47.502;18.940;2023-04-01T03:26:58;96760.56;;;7.13;100.00
65756;BME280;52489;47.502;18.940;2023-04-01T03:28:01;96765.16;;;7.07;100.00
65756;BME280;52489;47.502;18.940;2023-04-01T03:29:04;96763.31;;;7.08;100.00
65756;BME280;52489;47.502;18.940;2023-04-01T03:30:08;96763.31;;;7.08;100.00
65756;BME280;52489;47.502;18.940;2023-04-01T03:31:12;96756.22;;;7.00;100.00
65756;BME280;52489;47.502;18.940;2023-04-01T03:32:15;96762.03;;;6.97;100.00
65756;BME280;52489;47.502;18.940;2023-04-01T03:33:18;96761.31;;;7.05;100.00
65756;BME280;52489;47.502;18.940;2023-04-01T03:34:21;96763.78;;;7.10;100.00
65756;BME280;52489;47.502;18.940;2023-04-01T03:35:23;96770.34;;;7.07;100.00
65756;BME280;52489;47.502;18.940;2023-04-01T03:36:27;96769.59;;;7.07;100.00
65756;BME280;52489;47.502;18.940;2023-04-01T03:37:30;96770.78;;;7.01;100.00
65756;BME280;52489;47.502;18.940;2023-04-01T03:38:34;96767.88;;;7.02;100.00
65756;BME280;52489;47.502;18.940;2023-04-01T03:39:38;96761.63;;;7.12;100.00
65756;BME280;52489;47.502;18.940;2023-04-01T03:40:42;96758.41;;;7.15;100.00
65756;BME280;52489;47.502;18.940;2023-04-01T03:41:46;96771.72;;;7.05;100.00
65756;BME280;52489;47.502;18.940;2023-04-01T03:42:49;96766.16;;;6.98;100.00
65756;BME280;52489;47.502;18.940;2023-04-01T03:43:53;96775.50;;;6.90;100.00
65756;BME280;52489;47.502;18.940;2023-04-01T03:44:56;96772.19;;;6.67;100.00
65756;BME280;52489;47.502;18.940;2023-04-01T03:45:59;96777.13;;;6.69;100.00
65756;BME280;52489;47.502;18.940;2023-04-01T03:47:02;96782.38;;;6.77;100.00
65756;BME280;52489;47.502;18.940;2023-04-01T03:48:05;96779.28;;;6.75;100.00
65756;BME280;52489;47.502;18.940;2023-04-01T03:49:09;96780.56;;;6.87;100.00
65756;BME280;52489;47.502;18.940;2023-04-01T03:50:16;96779.75;;;6.86;100.00
65756;BME280;52489;47.502;18.940;2023-04-01T03:51:19;96778.56;;;6.83;100.00
65756;BME280;52489;47.502;18.940;2023-04-01T03:52:22;96783.28;;;6.81;100.00
65756;BME280;52489;47.502;18.940;2023-04-01T03:53:25;96776.84;;;6.79;100.00
65756;BME280;52489;47.502;18.940;2023-04-01T03:54:29;96775.28;;;6.69;100.00
65756;BME280;52489;47.502;18.940;2023-04-01T03:55:32;96778.81;;;6.73;100.00
65756;BME280;52489;47.502;18.940;2023-04-01T03:56:36;96781.69;;;6.63;100.00
65756;BME280;52489;47.502;18.940;2023-04-01T03:57:39;96783.53;;;6.63;100.00
65756;BME280;52489;47.502;18.940;2023-04-01T03:58:42;96783.38;;;6.68;100.00
65756;BME280;52489;47.502;18.940;2023-04-01T03:59:45;96785.97;;;6.68;100.00
65756;BME280;52489;47.502;18.940;2023-04-01T04:00:48;96782.81;;;6.79;100.00
65756;BME280;52489;47.502;18.940;2023-04-01T04:01:51;96784.37;;;6.80;100.00
65756;BME280;52489;47.502;18.940;2023-04-01T04:02:54;96792.47;;;6.79;100.00
65756;BME280;52489;47.502;18.940;2023-04-01T04:03:59;96797.97;;;6.77;100.00
65756;BME280;52489;47.502;18.940;2023-04-01T04:05:03;96791.84;;;6.82;100.00
65756;BME280;52489;47.502;18.940;2023-04-01T04:06:10;96795.09;;;6.88;100.00
65756;BME280;52489;47.502;18.940;2023-04-01T04:07:13;96788.19;;;6.83;100.00
65756;BME280;52489;47.502;18.940;2023-04-01T04:08:16;96787.72;;;6.81;100.00
65756;BME280;52489;47.502;18.940;2023-04-01T04:09:20;96789.44;;;6.54;100.00
65756;BME280;52489;47.502;18.940;2023-04-01T04:10:23;96787.16;;;6.61;100.00
65756;BME280;52489;47.502;18.940;2023-04-01T04:11:27;96791.53;;;6.75;100.00
65756;BME280;52489;47.502;18.940;2023-04-01T04:12:30;96781.53;;;6.68;100.00
65756;BME280;52489;47.502;18.940;2023-04-01T04:13:33;96783.41;;;6.76;100.00
65756;BME280;52489;47.502;18.940;2023-04-01T04:14:36;96779.56;;;6.74;100.00
65756;BME280;52489;47.502;18.940;2023-04-01T04:15:39;96782.13;;;6.65;100.00
65756;BME280;52489;47.502;18.940;2023-04-01T04:16:42;96783.53;;;6.63;100.00
65756;BME280;52489;47.502;18.940;2023-04-01T04:17:45;96776.81;;;6.70;100.00
65756;BME280;52489;47.502;18.940;2023-04-01T04:18:48;96778.00;;;6.64;100.00
65756;BME280;52489;47.502;18.940;2023-04-01T04:19:52;96777.53;;;6.62;100.00
65756;BME280;52489;47.502;18.940;2023-04-01T04:20:55;96782.28;;;6.60;100.00
65756;BME280;52489;47.502;18.940;2023-04-01T04:21:58;96790.09;;;6.60;100.00
65756;BME280;52489;47.502;18.940;2023-04-01T04:23:03;96787.28;;;6.56;100.00
65756;BME280;52489;47.502;18.940;2023-04-01T04:24:07;96786.38;;;6.52;100.00
65756;BME280;52489;47.502;18.940;2023-04-01T04:25:10;96794.94;;;6.53;100.00
65756;BME280;52489;47.502;18.940;2023-04-01T04:26:14;96783.16;;;6.55;100.00
65756;BME280;52489;47.502;18.940;2023-04-01T04:27:17;96784.47;;;6.44;100.00
65756;BME280;52489;47.502;18.940;2023-04-01T04:28:20;96788.62;;;6.45;100.00
65756;BME280;52489;47.502;18.940;2023-04-01T04:29:23;96791.56;;;6.52;100.00
65756;BME280;52489;47.502;18.940;2023-04-01T04:30:26;96784.28;;;6.63;100.00
65756;BME280;52489;47.502;18.940;2023-04-01T04:31:29;96781.69;;;6.63;100.00
65756;BME280;52489;47.502;18.940;2023-04-01T04:32:32;96784.87;;;6.60;100.00
65756;BME280;52489;47.502;18.940;2023-04-01T04:33:35;96777.13;;;6.69;100.00
65756;BME280;52489;47.502;18.940;2023-04-01T04:34:38;96774.16;;;6.61;100.00
65756;BME280;52489;47.502;18.940;2023-04-01T04:35:41;96778.44;;;6.57;100.00
65756;BME280;52489;47.502;18.940;2023-04-01T04:36:44;96770.78;;;6.61;100.00
65756;BME280;52489;47.502;18.940;2023-04-01T04:37:47;96780.59;;;6.64;100.00
65756;BME280;52489;47.502;18.940;2023-04-01T04:38:50;96777.72;;;6.66;100.00
65756;BME280;52489;47.502;18.940;2023-04-01T04:39:53;96779.38;;;6.61;100.00
65756;BME280;52489;47.502;18.940;2023-04-01T04:40:56;96773.84;;;6.54;100.00
65756;BME280;52489;47.502;18.940;2023-04-01T04:41:59;96775.69;;;6.54;100.00
65756;BME280;52489;47.502;18.940;2023-04-01T04:43:02;96778.03;;;6.73;100.00
65756;BME280;52489;47.502;18.940;2023-04-01T04:44:05;96767.31;;;6.66;100.00
65756;BME280;52489;47.502;18.940;2023-04-01T04:45:08;96767.13;;;6.62;100.00
65756;BME280;52489;47.502;18.940;2023-04-01T04:46:11;96768.16;;;6.52;100.00
65756;BME280;52489;47.502;18.940;2023-04-01T04:47:14;96774.28;;;6.56;100.00
65756;BME280;52489;47.502;18.940;2023-04-01T04:48:17;96776.28;;;6.51;100.00
65756;BME280;52489;47.502;18.940;2023-04-01T04:49:23;96782.88;;;6.57;100.00
65756;BME280;52489;47.502;18.940;2023-04-01T04:50:26;96771.25;;;6.54;100.00
65756;BME280;52489;47.502;18.940;2023-04-01T04:51:29;96777.84;;;6.60;100.00
65756;BME280;52489;47.502;18.940;2023-04-01T04:52:32;96776.50;;;6.41;100.00
65756;BME280;52489;47.502;18.940;2023-04-01T04:53:35;96778.56;;;6.52;100.00
65756;BME280;52489;47.502;18.940;2023-04-01T04:54:38;96774.31;;;6.65;100.00
65756;BME280;52489;47.502;18.940;2023-04-01T04:55:45;96778.00;;;6.64;100.00
65756;BME280;52489;47.502;18.940;2023-04-01T04:56:51;96770.25;;;6.73;100.00
65756;BME280;52489;47.502;18.940;2023-04-01T04:57:54;96778.03;;;6.73;100.00
65756;BME280;52489;47.502;18.940;2023-04-01T04:58:58;96777.28;;;6.72;100.00
65756;BME280;52489;47.502;18.940;2023-04-01T05:00:02;96777.91;;;6.78;100.00
65756;BME280;52489;47.502;18.940;2023-04-01T05:01:11;96770.41;;;6.76;100.00
65756;BME280;52489;47.502;18.940;2023-04-01T05:02:14;96768.84;;;6.67;100.00
65756;BME280;52489;47.502;18.940;2023-04-01T05:03:17;96778.47;;;6.66;100.00
65756;BME280;52489;47.502;18.940;2023-04-01T05:04:20;96767.75;;;6.68;100.00
65756;BME280;52489;47.502;18.940;2023-04-01T05:05:23;96771.75;;;6.74;100.00
65756;BME280;52489;47.502;18.940;2023-04-01T05:06:26;96768.87;;;6.75;100.00
65756;BME280;52489;47.502;18.940;2023-04-01T05:07:33;96771.34;;;6.80;100.00
65756;BME280;52489;47.502;18.940;2023-04-01T05:08:36;96773.03;;;6.85;100.00
65756;BME280;52489;47.502;18.940;2023-04-01T05:09:41;96781.00;;;6.89;100.00
65756;BME280;52489;47.502;18.940;2023-04-01T05:10:45;96778.25;;;6.85;100.00
65756;BME280;52489;47.502;18.940;2023-04-01T05:11:48;96781.78;;;6.89;100.00
65756;BME280;52489;47.502;18.940;2023-04-01T05:12:51;96774.47;;;7.00;100.00
65756;BME280;52489;47.502;18.940;2023-04-01T05:13:53;96778.78;;;7.04;100.00
65756;BME280;52489;47.502;18.940;2023-04-01T05:14:56;96784.87;;;7.00;100.00
65756;BME280;52489;47.502;18.940;2023-04-01T05:15:59;96778.00;;;7.04;100.00
65756;BME280;52489;47.502;18.940;2023-04-01T05:17:02;96782.63;;;7.07;100.00
65756;BME280;52489;47.502;18.940;2023-04-01T05:18:05;96787.22;;;7.27;100.00
65756;BME280;52489;47.502;18.940;2023-04-01T05:19:08;96783.13;;;7.35;100.00
65756;BME280;52489;47.502;18.940;2023-04-01T05:20:12;96777.91;;;7.35;100.00
65756;BME280;52489;47.502;18.940;2023-04-01T05:21:16;96780.84;;;7.34;100.00
65756;BME280;52489;47.502;18.940;2023-04-01T05:22:19;96779.56;;;7.14;100.00
65756;BME280;52489;47.502;18.940;2023-04-01T05:23:22;96774.06;;;7.24;100.00
65756;BME280;52489;47.502;18.940;2023-04-01T05:24:25;96776.69;;;7.33;100.00
65756;BME280;52489;47.502;18.940;2023-04-01T05:25:28;96788.03;;;7.28;100.00
65756;BME280;52489;47.502;18.940;2023-04-01T05:26:31;96774.78;;;7.16;100.00
65756;BME280;52489;47.502;18.940;2023-04-01T05:27:35;96785.41;;;7.19;100.00
65756;BME280;52489;47.502;18.940;2023-04-01T05:28:38;96784.50;;;7.33;100.00
65756;BME280;52489;47.502;18.940;2023-04-01T05:29:41;96782.38;;;7.43;100.00
65756;BME280;52489;47.502;18.940;2023-04-01T05:30:44;96777.03;;;7.48;100.00
65756;BME280;52489;47.502;18.940;2023-04-01T05:31:47;96779.03;;;7.51;100.00
65756;BME280;52489;47.502;18.940;2023-04-01T05:32:50;96790.03;;;7.57;100.00
65756;BME280;52489;47.502;18.940;2023-04-01T05:33:53;96785.91;;;7.73;100.00
65756;BME280;52489;47.502;18.940;2023-04-01T05:34:56;96791.59;;;7.75;99.91
65756;BME280;52489;47.502;18.940;2023-04-01T05:36:10;96787.00;;;7.72;99.90
65756;BME280;52489;47.502;18.940;2023-04-01T05:37:14;96787.63;;;7.69;99.76
65756;BME280;52489;47.502;18.940;2023-04-01T05:38:16;96781.03;;;7.72;99.98
65756;BME280;52489;47.502;18.940;2023-04-01T05:39:19;96792.97;;;7.82;100.00
65756;BME280;52489;47.502;18.940;2023-04-01T05:40:22;96794.97;;;7.93;100.00
65756;BME280;52489;47.502;18.940;2023-04-01T05:41:26;96792.81;;;7.95;100.00
65756;BME280;52489;47.502;18.940;2023-04-01T05:42:29;96799.87;;;7.95;100.00
65756;BME280;52489;47.502;18.940;2023-04-01T05:43:32;96791.91;;;7.83;100.00
65756;BME280;52489;47.502;18.940;2023-04-01T05:44:38;96797.88;;;7.92;100.00
65756;BME280;52489;47.502;18.940;2023-04-01T05:45:41;96789.28;;;8.00;100.00
65756;BME280;52489;47.502;18.940;2023-04-01T05:46:44;96788.81;;;8.07;100.00
65756;BME280;52489;47.502;18.940;2023-04-01T05:47:47;96798.94;;;8.17;100.00
65756;BME280;52489;47.502;18.940;2023-04-01T05:48:50;96794.16;;;8.28;99.67
65756;BME280;52489;47.502;18.940;2023-04-01T05:49:53;96792.16;;;8.25;98.74
65756;BME280;52489;47.502;18.940;2023-04-01T05:50:58;96789.91;;;8.14;98.32
65756;BME280;52489;47.502;18.940;2023-04-01T05:52:00;96787.91;;;8.20;98.93
65756;BME280;52489;47.502;18.940;2023-04-01T05:53:04;96792.78;;;8.21;100.00
65756;BME280;52489;47.502;18.940;2023-04-01T05:54:06;96785.91;;;8.26;100.00
65756;BME280;52489;47.502;18.940;2023-04-01T05:55:09;96795.88;;;8.24;100.00
65756;BME280;52489;47.502;18.940;2023-04-01T05:56:12;96789.72;;;8.28;100.00
65756;BME280;52489;47.502;18.940;2023-04-01T05:57:15;96788.50;;;8.34;99.19